Time;durP1;ratioP1;P1;durP2;ratioP2;P2;SDS_P1;SDS_P2;PMS_P1;PMS_P2;Temp;Humidity;BMP_temperature;BMP_pressure;BME280_temperature;BME280_humidity;BME280_pressure;Samples;Min_cycle;Max_cycle;Signal;HPM_P1;HPM_P2
2022/08/08 00:07:29;;;;;;;2.90;2.30;;;17.70;99.90;;;;;;21109642;28;20044;-79
2022/08/08 00:17:30;;;;;;;3.58;2.40;;;17.70;99.90;;;;;;21092276;28;20044;-76
2022/08/08 00:27:33;;;;;;;4.00;2.73;;;17.70;99.90;;;;;;21085874;28;20038;-77
2022/08/08 00:38:03;;;;;;;3.08;2.33;;;17.60;99.90;;;;;;21066127;28;20055;-78
2022/08/08 00:48:04;;;;;;;5.97;2.28;;;17.60;99.90;;;;;;21099864;28;20155;-77
2022/08/08 00:58:23;;;;;;;2.90;2.60;;;17.50;99.90;;;;;;21140212;28;20051;-77
2022/08/08 01:09:10;;;;;;;3.30;2.30;;;17.50;99.90;;;;;;21071588;28;20048;-77
2022/08/08 01:19:38;;;;;;;2.55;2.15;;;17.30;99.90;;;;;;21038211;28;20040;-78
2022/08/08 01:30:05;;;;;;;7.50;2.40;;;17.10;99.90;;;;;;21064186;28;20046;-78
2022/08/08 01:40:53;;;;;;;2.50;2.10;;;16.90;99.90;;;;;;21057873;28;20044;-77
2022/08/08 01:51:32;;;;;;;5.97;2.60;;;17.20;99.90;;;;;;21083377;28;20516;-78
2022/08/08 02:02:07;;;;;;;2.58;2.15;;;16.80;99.90;;;;;;21053740;28;20032;-78
2022/08/08 02:12:36;;;;;;;3.20;2.53;;;16.70;99.90;;;;;;21033375;22;20058;-77
2022/08/08 02:23:12;;;;;;;6.00;3.30;;;15.40;99.90;;;;;;20982995;28;20632;-73
2022/08/08 02:33:23;;;;;;;6.93;3.20;;;15.00;99.90;;;;;;20984362;28;20037;-77
2022/08/08 02:43:49;;;;;;;4.18;3.10;;;14.70;99.90;;;;;;20962658;28;20064;-76
2022/08/08 02:53:50;;;;;;;4.45;3.45;;;14.60;99.90;;;;;;20964434;28;20717;-77
2022/08/08 03:04:10;;;;;;;3.80;3.40;;;14.40;99.90;;;;;;20962505;28;20032;-75
2022/08/08 03:14:17;;;;;;;4.20;3.15;;;14.40;99.90;;;;;;21000483;28;20123;-76
2022/08/08 03:24:18;;;;;;;7.35;3.40;;;14.10;99.90;;;;;;21003474;28;20120;-75
2022/08/08 03:34:20;;;;;;;4.80;3.55;;;14.00;99.90;;;;;;20993763;28;20036;-76
2022/08/08 03:44:21;;;;;;;5.23;3.43;;;14.10;99.90;;;;;;20982621;28;20474;-76
2022/08/08 03:54:23;;;;;;;4.73;3.37;;;13.90;99.90;;;;;;20945684;28;20041;-75
2022/08/08 04:04:25;;;;;;;3.67;3.00;;;13.70;99.90;;;;;;20962480;28;20040;-76
2022/08/08 04:14:26;;;;;;;3.40;3.00;;;13.80;99.90;;;;;;20957160;28;20059;-76
2022/08/08 04:24:27;;;;;;;5.32;4.00;;;13.40;99.90;;;;;;20941602;28;20111;-76
2022/08/08 04:34:28;;;;;;;4.47;3.57;;;13.20;99.90;;;;;;20914373;28;20036;-76
2022/08/08 04:44:30;;;;;;;7.50;3.10;;;13.10;99.90;;;;;;20915413;28;20039;-75
2022/08/08 04:54:31;;;;;;;5.38;3.30;;;13.30;99.90;;;;;;20895677;28;20041;-76
2022/08/08 05:04:32;;;;;;;5.13;3.60;;;13.60;99.90;;;;;;20911872;28;20384;-76
2022/08/08 05:14:34;;;;;;;4.35;3.67;;;13.60;99.90;;;;;;20916865;28;20578;-77
2022/08/08 05:24:40;;;;;;;6.18;4.40;;;14.00;99.90;;;;;;20961867;28;20199;-76
2022/08/08 05:34:47;;;;;;;4.70;3.88;;;14.40;99.90;;;;;;20908712;28;20044;-76
2022/08/08 05:44:49;;;;;;;5.18;4.07;;;14.90;99.90;;;;;;20908700;28;20044;-76
2022/08/08 05:54:50;;;;;;;5.82;3.80;;;15.40;99.90;;;;;;20909389;28;20033;-75
2022/08/08 06:04:55;;;;;;;8.97;4.87;;;15.90;99.90;;;;;;20907473;28;20044;-76
2022/08/08 06:15:02;;;;;;;6.15;5.07;;;16.30;99.90;;;;;;20905910;28;20045;-76
2022/08/08 06:25:06;;;;;;;6.57;4.32;;;16.70;99.90;;;;;;20889928;28;20041;-77
2022/08/08 06:35:11;;;;;;;4.93;3.33;;;17.20;99.90;;;;;;20906335;28;20051;-76
2022/08/08 06:45:14;;;;;;;5.15;3.88;;;17.80;99.90;;;;;;20907183;28;20036;-75
2022/08/08 06:55:16;;;;;;;4.40;3.30;;;18.50;99.90;;;;;;20907247;28;20040;-77
2022/08/08 07:05:22;;;;;;;5.00;2.90;;;19.20;99.90;;;;;;20888914;28;20068;-76
2022/08/08 07:15:39;;;;;;;3.88;2.78;;;20.20;99.90;;;;;;20906701;28;20028;-76
2022/08/08 07:25:43;;;;;;;3.00;2.03;;;21.00;99.90;;;;;;20927582;28;20140;-77
2022/08/08 07:35:46;;;;;;;4.90;2.42;;;21.70;99.90;;;;;;20920375;28;20048;-77
2022/08/08 07:45:47;;;;;;;3.25;1.60;;;22.60;99.90;;;;;;20918541;28;20037;-76
2022/08/08 07:55:50;;;;;;;2.25;1.50;;;22.90;99.90;;;;;;20918895;28;20384;-77
2022/08/08 08:05:53;;;;;;;1.75;1.40;;;23.60;99.90;;;;;;20900495;28;20033;-76
2022/08/08 08:16:05;;;;;;;2.53;1.60;;;24.40;99.90;;;;;;21103763;23;20125;-77
2022/08/08 08:26:12;;;;;;;2.10;1.02;;;24.60;99.90;;;;;;21096584;28;20382;-76
2022/08/08 08:36:14;;;;;;;1.52;1.00;;;25.10;99.90;;;;;;21147366;28;20044;-76
2022/08/08 08:46:17;;;;;;;1.77;1.15;;;25.80;99.90;;;;;;21138131;28;20031;-76
2022/08/08 08:56:21;;;;;;;3.65;1.10;;;26.40;99.90;;;;;;21146135;28;20036;-76
2022/08/08 09:06:28;;;;;;;3.05;1.25;;;27.00;99.90;;;;;;21145760;28;20039;-76
2022/08/08 09:16:32;;;;;;;2.78;1.20;;;27.20;99.90;;;;;;21154465;28;20435;-77
2022/08/08 09:26:46;;;;;;;3.33;1.00;;;28.10;99.90;;;;;;21159319;28;20123;-78
2022/08/08 09:36:47;;;;;;;1.13;0.90;;;28.10;99.90;;;;;;21169506;28;20104;-77
2022/08/08 09:46:50;;;;;;;1.75;1.15;;;28.10;99.90;;;;;;21177522;28;20119;-77
2022/08/08 09:56:54;;;;;;;3.35;0.90;;;28.50;99.90;;;;;;21193019;28;20050;-77
2022/08/08 10:06:56;;;;;;;1.00;0.82;;;28.20;99.90;;;;;;21195642;28;20036;-77
2022/08/08 10:16:57;;;;;;;1.90;1.08;;;28.50;99.90;;;;;;21145722;28;20130;-78
2022/08/08 10:27:04;;;;;;;2.33;0.88;;;28.90;99.90;;;;;;21088063;28;20074;-77
2022/08/08 10:37:07;;;;;;;1.20;0.90;;;29.60;99.90;;;;;;21101882;28;20039;-77
2022/08/08 10:47:11;;;;;;;4.68;0.82;;;29.60;99.90;;;;;;21137000;28;20035;-77
2022/08/08 10:57:16;;;;;;;1.92;1.05;;;29.50;99.90;;;;;;21193934;28;20044;-76
2022/08/08 11:07:34;;;;;;;2.78;1.10;;;30.10;98.60;;;;;;21163216;28;20035;-76
2022/08/08 11:17:36;;;;;;;2.25;1.58;;;30.10;98.60;;;;;;21200459;27;20069;-77
2022/08/08 11:27:38;;;;;;;2.28;1.00;;;30.30;98.90;;;;;;21178128;28;20088;-77
2022/08/08 11:37:41;;;;;;;1.50;0.77;;;30.30;98.30;;;;;;21159445;28;20035;-77
2022/08/08 11:47:42;;;;;;;1.95;1.00;;;30.30;97.40;;;;;;21182084;27;20054;-77
2022/08/08 11:57:43;;;;;;;1.40;1.13;;;30.50;97.90;;;;;;21172693;28;20048;-78
2022/08/08 12:07:45;;;;;;;1.38;0.93;;;31.20;97.10;;;;;;21138957;28;20040;-77
2022/08/08 12:17:46;;;;;;;3.28;1.27;;;30.90;96.60;;;;;;21111884;28;20036;-79
2022/08/08 12:27:47;;;;;;;1.75;1.00;;;31.40;96.60;;;;;;21127928;28;20043;-78
2022/08/08 12:38:06;;;;;;;3.80;0.90;;;31.20;95.80;;;;;;21137233;28;20039;-78
2022/08/08 12:48:18;;;;;;;3.30;1.05;;;31.00;95.80;;;;;;21141115;28;20035;-77
2022/08/08 12:58:19;;;;;;;3.42;0.93;;;31.70;94.60;;;;;;21120057;28;20028;-76
2022/08/08 13:08:20;;;;;;;3.88;1.10;;;30.70;94.00;;;;;;21136074;28;20127;-77
2022/08/08 13:18:21;;;;;;;1.95;1.00;;;31.30;94.70;;;;;;21123604;28;20069;-78
2022/08/08 13:28:28;;;;;;;1.35;1.08;;;31.40;92.40;;;;;;21095741;28;20089;-76
2022/08/08 13:38:30;;;;;;;1.58;1.00;;;31.40;93.30;;;;;;21171829;28;20092;-77
2022/08/08 13:48:41;;;;;;;1.30;0.80;;;31.40;91.50;;;;;;21160796;28;20044;-77
2022/08/08 13:58:51;;;;;;;2.55;1.42;;;31.20;92.70;;;;;;21180206;28;20549;-78
2022/08/08 14:08:52;;;;;;;0.97;0.87;;;31.40;91.80;;;;;;21161347;28;20048;-78
2022/08/08 14:18:59;;;;;;;1.42;0.95;;;31.40;91.00;;;;;;21210150;22;20103;-80
2022/08/08 14:29:00;;;;;;;2.83;1.00;;;30.90;92.50;;;;;;21080857;28;20048;-80
2022/08/08 14:39:03;;;;;;;3.05;1.27;;;30.80;91.80;;;;;;21052511;28;20051;-80
2022/08/08 14:49:15;;;;;;;1.63;1.13;;;31.30;91.30;;;;;;21092433;28;20093;-80
2022/08/08 14:59:16;;;;;;;1.15;0.80;;;31.50;91.10;;;;;;21091486;28;20527;-79
2022/08/08 15:09:18;;;;;;;1.67;1.00;;;31.30;91.20;;;;;;21070067;28;20727;-81
2022/08/08 15:19:19;;;;;;;2.95;1.25;;;30.70;91.60;;;;;;21111159;28;20282;-81
2022/08/08 15:29:20;;;;;;;1.35;0.80;;;30.00;92.00;;;;;;21003653;28;20040;-80
2022/08/08 15:39:21;;;;;;;2.35;0.85;;;30.20;91.20;;;;;;20987584;28;20040;-81
2022/08/08 15:49:23;;;;;;;2.17;0.85;;;30.30;91.80;;;;;;21003343;28;20489;-80
2022/08/08 15:59:23;;;;;;;1.55;0.82;;;30.30;91.60;;;;;;21018329;28;20032;-80
2022/08/08 16:09:26;;;;;;;4.30;0.98;;;29.90;91.30;;;;;;20998330;28;20082;-80
2022/08/08 16:19:28;;;;;;;2.88;0.70;;;29.10;92.00;;;;;;20997709;28;20041;-80
2022/08/08 16:29:30;;;;;;;1.20;0.80;;;28.90;92.50;;;;;;20979756;28;20082;-80
2022/08/08 16:39:31;;;;;;;1.98;1.00;;;28.80;92.90;;;;;;20995613;28;20032;-79
2022/08/08 16:49:31;;;;;;;1.60;0.80;;;28.50;92.40;;;;;;21008550;28;20031;-79
2022/08/08 16:59:32;;;;;;;1.23;0.98;;;28.30;92.80;;;;;;21006308;28;20052;-80
2022/08/08 17:09:33;;;;;;;1.15;0.90;;;28.30;92.90;;;;;;20970852;28;20032;-79
2022/08/08 17:19:34;;;;;;;3.20;1.45;;;27.90;92.80;;;;;;20987155;28;20040;-79
2022/08/08 17:29:35;;;;;;;3.15;1.35;;;27.60;93.50;;;;;;21004010;28;20590;-79
2022/08/08 17:39:36;;;;;;;4.82;1.48;;;27.60;93.40;;;;;;20984058;28;20481;-79
2022/08/08 17:49:38;;;;;;;3.67;0.80;;;27.30;94.20;;;;;;20981373;28;20060;-79
2022/08/08 17:59:39;;;;;;;3.70;0.95;;;27.00;94.50;;;;;;20987502;28;20032;-79
2022/08/08 18:09:40;;;;;;;1.67;1.00;;;26.80;95.10;;;;;;21004363;28;20051;-79
2022/08/08 18:19:41;;;;;;;2.00;0.93;;;26.60;95.40;;;;;;20985671;28;20040;-80
2022/08/08 18:29:42;;;;;;;2.92;1.02;;;26.30;95.70;;;;;;21001215;28;20131;-79
2022/08/08 18:39:43;;;;;;;2.72;1.83;;;25.90;96.70;;;;;;20998403;28;20036;-80
2022/08/08 18:49:45;;;;;;;3.17;0.98;;;25.60;96.90;;;;;;20996136;28;20049;-80
2022/08/08 18:59:46;;;;;;;2.42;1.25;;;25.20;97.70;;;;;;21012087;28;20620;-81
2022/08/08 19:09:46;;;;;;;1.67;1.27;;;24.60;99.20;;;;;;20999650;28;20044;-81
2022/08/08 19:19:47;;;;;;;;;;;23.90;99.90;;;;;;21002781;28;20040;-80
2022/08/08 19:29:48;;;;;;;6.53;1.35;;;23.30;99.90;;;;;;20998189;28;19908;-79
2022/08/08 19:39:49;;;;;;;1.43;1.20;;;23.00;99.90;;;;;;21016499;28;20094;-80
2022/08/08 19:49:50;;;;;;;1.63;1.40;;;22.70;99.90;;;;;;21020308;28;20048;-78
2022/08/08 19:59:51;;;;;;;1.35;1.25;;;22.50;99.90;;;;;;21093575;28;20079;-78
2022/08/08 20:09:52;;;;;;;2.50;1.37;;;22.30;99.90;;;;;;21091164;22;20045;-80
2022/08/08 20:19:53;;;;;;;1.63;1.43;;;21.90;99.90;;;;;;21065511;23;20127;-83
2022/08/08 20:29:54;;;;;;;5.00;1.63;;;21.80;99.90;;;;;;21046158;28;20040;-81
2022/08/08 20:39:55;;;;;;;4.83;1.47;;;21.60;99.90;;;;;;21042507;28;20040;-82
2022/08/08 20:49:56;;;;;;;2.53;1.47;;;21.60;99.90;;;;;;20977853;28;20040;-82
2022/08/08 21:00:00;;;;;;;2.08;1.50;;;21.50;99.90;;;;;;20976792;28;20036;-83
2022/08/08 21:10:01;;;;;;;2.13;1.47;;;21.10;99.90;;;;;;20992847;28;20068;-83
2022/08/08 21:20:02;;;;;;;3.67;1.77;;;21.00;99.90;;;;;;20975624;28;20313;-84
2022/08/08 21:30:05;;;;;;;5.88;1.63;;;20.70;99.90;;;;;;20992412;28;20489;-83
2022/08/08 21:40:06;;;;;;;;;;;20.50;99.90;;;;;;20953273;28;20051;-83
2022/08/08 21:50:09;;;;;;;4.95;1.88;;;20.40;99.90;;;;;;21053599;28;19938;-84
2022/08/08 22:00:11;;;;;;;4.60;1.60;;;20.50;99.90;;;;;;21073476;28;20036;-83
2022/08/08 22:10:15;;;;;;;2.60;1.58;;;20.20;99.90;;;;;;21055208;28;20044;-83
2022/08/08 22:20:15;;;;;;;2.37;1.77;;;20.00;99.90;;;;;;21072973;28;20097;-83
2022/08/08 22:30:16;;;;;;;4.90;1.83;;;19.70;99.90;;;;;;20909093;28;20033;-83
2022/08/08 22:40:17;;;;;;;7.43;1.33;;;19.60;99.90;;;;;;20903562;28;20041;-83
2022/08/08 22:50:18;;;;;;;2.33;1.60;;;19.50;99.90;;;;;;20911367;28;20068;-83
2022/08/08 23:00:19;;;;;;;3.63;2.30;;;19.50;99.90;;;;;;20902616;28;20076;-84
2022/08/08 23:10:20;;;;;;;;;;;19.20;99.90;;;;;;20964005;28;20044;-83
2022/08/08 23:20:21;;;;;;;6.13;1.98;;;18.90;99.90;;;;;;20994136;28;19912;-83
2022/08/08 23:30:22;;;;;;;3.57;2.03;;;18.70;99.90;;;;;;20965224;28;20094;-84
2022/08/08 23:40:23;;;;;;;4.87;2.03;;;18.90;99.90;;;;;;20980872;28;20130;-83
2022/08/08 23:50:24;;;;;;;2.50;2.00;;;18.60;99.90;;;;;;20999396;28;20032;-83
